Time;durP1;ratioP1;P1;durP2;ratioP2;P2;SDS_P1;SDS_P2;PMS_P1;PMS_P2;Temp;Humidity;BMP_temperature;BMP_pressure;BME280_temperature;BME280_humidity;BME280_pressure;Samples;Min_cycle;Max_cycle;Signal;HPM_P1;HPM_P2
2022/11/09 04:23:40;;;;;;;47.33;17.83;;;;;;;9.27;95.09;100226.31;4518206;27;20100;-75
2022/11/09 04:26:07;;;;;;;45.40;17.20;;;;;;;8.95;95.52;100226.50;4301695;33;33843;-87
2022/11/09 04:28:35;;;;;;;50.05;17.67;;;;;;;8.90;96.45;100227.19;4302120;33;34085;-73
2022/11/09 04:31:02;;;;;;;46.58;16.75;;;;;;;8.48;99.59;100221.59;4307060;33;34791;-73
2022/11/09 04:33:30;;;;;;;44.47;17.62;;;;;;;9.28;94.66;100223.37;4303254;33;33591;-78
2022/11/09 04:36:01;;;;;;;44.65;17.30;;;;;;;9.10;94.55;100229.66;4304812;33;34023;-72
2022/11/09 04:38:28;;;;;;;46.47;17.55;;;;;;;9.04;95.78;100223.25;4314638;33;34144;-75
2022/11/09 04:41:00;;;;;;;47.92;17.87;;;;;;;9.12;95.00;100218.59;4319406;33;34635;-74
2022/11/09 04:43:27;;;;;;;48.50;17.83;;;;;;;8.89;96.45;100219.28;4318868;33;33165;-74
2022/11/09 04:45:58;;;;;;;39.88;15.77;;;;;;;9.15;94.96;100216.25;4318528;33;33698;-85
2022/11/09 04:48:26;;;;;;;42.55;16.40;;;;;;;8.72;96.15;100224.47;4314089;33;34222;-87
2022/11/09 04:51:05;;;;;;;45.53;16.17;;;;;;;9.03;94.43;100227.03;4305415;33;34582;-84
2022/11/09 04:53:33;;;;;;;39.90;15.88;;;;;;;9.30;94.34;100228.56;4305477;33;33444;-85
2022/11/09 04:56:01;;;;;;;40.55;16.37;;;;;;;9.26;93.81;100219.25;4310731;33;34533;-74
2022/11/09 04:58:29;;;;;;;39.58;16.62;;;;;;;9.53;91.57;100220.53;4315200;33;33723;-84
2022/11/09 05:01:03;;;;;;;45.28;17.50;;;;;;;9.18;93.63;100218.50;4318469;33;33621;-82
2022/11/09 05:03:31;;;;;;;44.03;16.60;;;;;;;9.24;93.15;100217.59;4317740;33;33042;-76
2022/11/09 05:05:59;;;;;;;49.55;16.55;;;;;;;9.07;94.33;100222.00;4319747;33;33721;-79
2022/11/09 05:08:26;;;;;;;51.08;16.15;;;;;;;8.95;95.35;100215.69;4319314;33;34170;-75
2022/11/09 05:10:57;;;;;;;44.20;16.65;;;;;;;9.20;93.18;100215.56;4318394;33;34203;-73
2022/11/09 05:13:24;;;;;;;45.45;17.98;;;;;;;9.10;94.16;100221.53;4318584;33;33905;-73
2022/11/09 05:15:51;;;;;;;51.83;18.10;;;;;;;9.18;93.75;100215.00;4319512;33;34019;-74
2022/11/09 05:18:19;;;;;;;39.20;16.35;;;;;;;9.20;92.64;100213.69;4319416;33;34278;-74
2022/11/09 05:20:46;;;;;;;46.22;16.77;;;;;;;8.74;96.36;100214.25;4319214;33;34001;-74
2022/11/09 05:26:00;;;;;;;50.60;16.87;;;;;;;9.07;95.42;100194.06;4303830;33;32432;-73
2022/11/09 05:28:27;;;;;;;48.63;19.15;;;;;;;8.79;96.05;100204.41;4304819;33;35009;-76
2022/11/09 05:30:55;;;;;;;48.15;15.45;;;;;;;8.92;97.00;100211.56;4303258;33;33846;-74
2022/11/09 05:33:22;;;;;;;47.75;17.37;;;;;;;8.32;100.00;100220.25;4301695;33;33590;-76
2022/11/09 05:35:53;;;;;;;43.90;16.62;;;;;;;8.79;98.29;100223.34;4303380;33;34021;-76
2022/11/09 05:38:21;;;;;;;50.15;18.55;;;;;;;9.04;95.83;100238.66;4291661;33;34887;-75
2022/11/09 05:40:49;;;;;;;42.17;16.75;;;;;;;9.03;95.14;100221.59;4303018;33;33791;-78
2022/11/09 05:43:17;;;;;;;49.97;17.75;;;;;;;9.01;95.80;100231.84;4303219;33;33649;-72
2022/11/09 05:45:45;;;;;;;51.00;17.20;;;;;;;8.96;94.63;100228.16;4290589;33;34483;-86
2022/11/09 05:48:15;;;;;;;45.25;16.95;;;;;;;8.91;95.76;100223.41;4303532;33;34052;-81
2022/11/09 05:50:43;;;;;;;44.97;18.58;;;;;;;8.75;97.55;100222.16;4301591;33;34327;-81
2022/11/09 05:53:11;;;;;;;57.22;17.80;;;;;;;8.65;98.17;100231.84;4302171;33;33269;-77
2022/11/09 05:55:39;;;;;;;53.78;18.55;;;;;;;8.72;97.83;100229.88;4302558;33;34098;-74
2022/11/09 05:58:06;;;;;;;53.10;18.83;;;;;;;8.97;95.35;100227.09;4303326;33;34969;-86
2022/11/09 06:00:34;;;;;;;47.58;18.37;;;;;;;9.32;93.48;100231.88;4301546;33;34171;-81
2022/11/09 06:03:07;;;;;;;47.60;18.87;;;;;;;8.76;95.99;100237.31;4302231;33;33923;-72
2022/11/09 06:05:36;;;;;;;47.75;17.15;;;;;;;9.28;93.29;100231.50;4302269;33;34049;-75
2022/11/09 06:08:06;;;;;;;47.05;17.58;;;;;;;9.40;92.67;100242.41;4301880;33;34961;-80
2022/11/09 06:10:33;;;;;;;40.75;17.23;;;;;;;9.37;92.29;100238.28;4303358;33;33737;-76
2022/11/09 06:13:01;;;;;;;48.50;17.42;;;;;;;9.08;93.95;100233.63;4302257;33;33967;-74
2022/11/09 06:15:28;;;;;;;47.17;18.50;;;;;;;8.99;95.16;100233.94;4296122;33;216170;-84
2022/11/09 06:17:57;;;;;;;40.95;18.08;;;;;;;9.13;93.56;100228.34;4303250;33;34194;-81
2022/11/09 06:20:26;;;;;;;42.17;17.10;;;;;;;8.42;97.71;100230.59;4303335;33;34775;-74
2022/11/09 06:22:59;;;;;;;41.85;16.95;;;;;;;8.39;97.99;100231.00;4301738;33;33524;-80
2022/11/09 06:25:31;;;;;;;43.97;17.95;;;;;;;8.36;99.44;100245.00;4303174;33;33793;-76
2022/11/09 06:27:59;;;;;;;47.90;18.30;;;;;;;8.51;98.27;100240.09;4302035;33;34287;-75
2022/11/09 06:30:26;;;;;;;44.03;17.27;;;;;;;8.31;100.00;100248.34;4303203;33;34827;-76
2022/11/09 06:33:01;;;;;;;59.65;18.50;;;;;;;8.04;100.00;100246.91;4279671;33;32011;-79
2022/11/09 06:35:28;;;;;;;;;;;;;;;8.34;100.00;100245.19;4300716;33;33637;-71
2022/11/09 06:37:56;;;;;;;52.88;17.77;;;;;;;8.40;99.24;100243.47;4302804;33;33873;-70
2022/11/09 06:40:24;;;;;;;46.58;16.58;;;;;;;8.27;100.00;100246.28;4302632;33;33853;-74
2022/11/09 06:42:52;;;;;;;37.55;16.83;;;;;;;8.14;100.00;100248.09;4300797;33;33532;-75
2022/11/09 06:45:19;;;;;;;50.63;18.30;;;;;;;8.14;100.00;100239.97;4290216;33;34040;-77
2022/11/09 06:47:46;;;;;;;47.65;16.08;;;;;;;8.49;97.87;100239.47;4302138;33;34233;-77
2022/11/09 06:50:14;;;;;;;39.60;15.82;;;;;;;7.95;100.00;100246.38;4302637;33;33841;-71
2022/11/09 06:52:42;;;;;;;46.25;19.35;;;;;;;8.21;99.78;100253.44;4302492;33;34658;-71
2022/11/09 06:55:09;;;;;;;41.05;16.83;;;;;;;8.42;99.20;100252.22;4302774;33;35005;-72
2022/11/09 06:57:37;;;;;;;41.47;17.00;;;;;;;8.36;97.42;100253.09;4302833;33;34783;-71
2022/11/09 07:00:05;;;;;;;40.30;16.45;;;;;;;7.99;99.99;100261.06;4301756;33;33846;-71
2022/11/09 07:02:32;;;;;;;40.90;16.27;;;;;;;8.20;98.50;100254.47;4301559;33;33637;-71
2022/11/09 07:05:00;;;;;;;43.67;16.45;;;;;;;8.32;98.62;100254.59;4300225;33;33548;-82
2022/11/09 07:07:27;;;;;;;47.45;17.92;;;;;;;8.28;98.78;100250.66;4292236;33;34944;-85
2022/11/09 07:09:56;;;;;;;44.78;17.42;;;;;;;8.27;99.04;100247.16;4290248;33;34059;-77
2022/11/09 07:12:23;;;;;;;44.85;18.48;;;;;;;8.23;99.70;100243.22;4290242;33;34380;-75
2022/11/09 07:14:51;;;;;;;45.47;18.35;;;;;;;7.96;100.00;100248.81;4289487;33;34748;-76
2022/11/09 07:17:18;;;;;;;44.40;16.45;;;;;;;8.34;99.70;100249.78;4289802;33;35093;-76
2022/11/09 07:19:46;;;;;;;42.13;16.15;;;;;;;7.91;100.00;100251.38;4295925;33;34029;-74
2022/11/09 07:22:13;;;;;;;39.75;16.92;;;;;;;7.98;100.00;100248.62;4302327;33;34202;-75
2022/11/09 07:24:41;;;;;;;47.13;17.85;;;;;;;8.12;100.00;100246.63;4303944;33;33165;-74
2022/11/09 07:27:08;;;;;;;48.92;18.12;;;;;;;8.04;100.00;100253.16;4304102;33;34185;-76
2022/11/09 07:29:36;;;;;;;50.90;19.12;;;;;;;7.89;100.00;100253.47;4303150;33;33771;-80
2022/11/09 07:32:03;;;;;;;43.08;17.58;;;;;;;7.91;100.00;100256.78;4302597;33;33973;-80
2022/11/09 07:34:31;;;;;;;39.88;16.95;;;;;;;8.00;100.00;100250.03;4301635;33;33960;-80
2022/11/09 07:36:58;;;;;;;55.12;18.27;;;;;;;7.68;100.00;100251.09;4303804;33;35184;-71
2022/11/09 07:39:25;;;;;;;41.80;16.62;;;;;;;8.04;100.00;100257.72;4303876;33;34914;-70
2022/11/09 07:41:54;;;;;;;47.13;18.52;;;;;;;8.22;100.00;100249.66;4303893;33;34854;-70
2022/11/09 07:44:24;;;;;;;45.50;16.20;;;;;;;8.10;98.21;100251.41;4304029;33;34002;-71
2022/11/09 07:46:52;;;;;;;45.88;18.27;;;;;;;8.02;100.00;100253.34;4303460;33;34264;-70
2022/11/09 07:49:19;;;;;;;46.58;19.45;;;;;;;8.10;100.00;100257.69;4303884;33;33950;-77
2022/11/09 07:51:47;;;;;;;51.13;21.10;;;;;;;8.16;100.00;100258.66;4303783;33;33667;-76
2022/11/09 07:54:14;;;;;;;57.00;21.92;;;;;;;8.36;98.13;100264.72;4303125;33;33926;-70
2022/11/09 07:56:42;;;;;;;51.83;20.65;;;;;;;8.52;98.02;100257.94;4303970;33;34284;-70
2022/11/09 07:59:09;;;;;;;49.70;19.27;;;;;;;8.41;98.64;100258.69;4302619;33;34040;-70
2022/11/09 08:01:36;;;;;;;45.33;17.85;;;;;;;8.38;97.50;100256.38;4303792;33;33332;-69
2022/11/09 08:04:05;;;;;;;44.08;17.98;;;;;;;8.32;99.49;100263.53;4303745;33;34868;-70
2022/11/09 08:06:32;;;;;;;48.97;19.12;;;;;;;7.95;100.00;100257.19;4303910;33;34230;-76
2022/11/09 08:08:59;;;;;;;51.80;19.67;;;;;;;7.96;100.00;100251.53;4298703;33;34586;-79
2022/11/09 08:11:28;;;;;;;46.10;18.87;;;;;;;8.06;100.00;100250.22;4295226;33;34521;-72
2022/11/09 08:13:55;;;;;;;42.67;17.35;;;;;;;8.19;100.00;100248.25;4289545;33;33925;-71
2022/11/09 08:16:23;;;;;;;50.03;19.08;;;;;;;8.37;100.00;100254.75;4289784;33;34189;-74
2022/11/09 08:18:51;;;;;;;47.90;18.55;;;;;;;8.37;99.57;100241.22;4300416;33;34013;-84
2022/11/09 08:21:18;;;;;;;48.72;19.85;;;;;;;8.40;99.61;100236.25;4289616;33;33454;-80
2022/11/09 08:23:46;;;;;;;53.22;19.65;;;;;;;8.33;99.65;100238.13;4291423;33;34431;-75
2022/11/09 08:26:13;;;;;;;55.80;20.17;;;;;;;8.13;100.00;100238.31;4290581;33;34925;-87
2022/11/09 08:28:41;;;;;;;53.42;20.80;;;;;;;8.30;100.00;100244.00;4303755;33;35000;-83
2022/11/09 08:31:09;;;;;;;47.60;20.27;;;;;;;8.47;99.92;100238.88;4303702;33;33755;-74
2022/11/09 08:33:39;;;;;;;52.58;20.88;;;;;;;8.29;100.00;100246.91;4303494;33;33344;-82
2022/11/09 08:36:12;;;;;;;52.83;19.70;;;;;;;8.64;99.21;100241.84;4304146;33;33704;-74
2022/11/09 08:38:40;;;;;;;61.00;22.05;;;;;;;8.44;99.79;100244.72;4302778;33;33655;-83
2022/11/09 08:41:08;;;;;;;53.75;20.95;;;;;;;8.41;100.00;100246.00;4301998;33;34191;-77
2022/11/09 08:43:40;;;;;;;50.30;20.77;;;;;;;8.58;99.47;100240.03;4301705;33;33572;-72
2022/11/09 08:46:07;;;;;;;59.05;21.62;;;;;;;8.65;99.22;100237.25;4303408;33;34106;-73
2022/11/09 08:48:35;;;;;;;56.70;20.98;;;;;;;8.40;100.00;100249.75;4303174;33;34545;-71
2022/11/09 08:51:03;;;;;;;51.90;18.85;;;;;;;8.18;100.00;100248.44;4302521;33;33422;-79
2022/11/09 08:53:30;;;;;;;52.38;20.37;;;;;;;8.40;100.00;100238.06;4303589;33;34061;-87
2022/11/09 08:55:57;;;;;;;54.60;20.80;;;;;;;8.66;100.00;100247.84;4303026;33;33783;-72
2022/11/09 08:58:25;;;;;;;57.42;21.17;;;;;;;8.75;99.53;100235.69;4303174;33;34057;-77
2022/11/09 09:00:53;;;;;;;52.62;21.42;;;;;;;9.00;97.49;100248.28;4303662;33;33380;-86
2022/11/09 09:03:20;;;;;;;56.85;22.33;;;;;;;8.75;98.24;100251.91;4305163;33;34074;-76
2022/11/09 09:05:48;;;;;;;48.78;19.37;;;;;;;8.99;97.79;100247.47;4305175;33;34032;-76
2022/11/09 09:08:17;;;;;;;53.97;20.10;;;;;;;8.59;100.00;100241.66;4304896;33;33837;-75
2022/11/09 09:10:45;;;;;;;53.35;20.73;;;;;;;8.25;100.00;100240.28;4305046;33;33521;-86
2022/11/09 09:13:12;;;;;;;57.25;21.42;;;;;;;8.54;100.00;100238.81;4305169;33;34428;-85
2022/11/09 09:15:40;;;;;;;57.83;22.08;;;;;;;8.64;100.00;100241.84;4305160;33;34124;-76
2022/11/09 09:18:07;;;;;;;55.17;21.67;;;;;;;8.77;99.48;100243.56;4302568;33;34417;-76
2022/11/09 09:20:35;;;;;;;57.95;23.02;;;;;;;8.46;100.00;100236.38;4305275;33;33787;-85
2022/11/09 09:23:02;;;;;;;57.90;21.55;;;;;;;8.38;100.00;100245.56;4305065;33;34700;-75
2022/11/09 09:25:30;;;;;;;63.85;22.42;;;;;;;8.46;100.00;100245.31;4304707;33;33737;-75
2022/11/09 09:27:57;;;;;;;57.80;22.77;;;;;;;8.61;100.00;100245.78;4305017;33;33932;-76
2022/11/09 09:30:25;;;;;;;66.53;23.80;;;;;;;8.68;100.00;100240.31;4305032;33;34223;-76
2022/11/09 09:32:57;;;;;;;66.53;25.40;;;;;;;9.04;100.00;100239.50;4304889;33;33820;-77
2022/11/09 09:35:26;;;;;;;64.00;23.80;;;;;;;8.65;100.00;100235.34;4304067;33;34236;-76
2022/11/09 09:37:54;;;;;;;68.93;25.23;;;;;;;8.58;100.00;100235.44;4304811;33;33739;-87
2022/11/09 09:40:27;;;;;;;67.82;25.48;;;;;;;9.18;99.49;100239.34;4304033;33;34501;-75
2022/11/09 09:42:55;;;;;;;72.45;27.65;;;;;;;8.84;100.00;100233.50;4303702;33;34704;-87
2022/11/09 09:45:27;;;;;;;71.80;24.80;;;;;;;8.84;100.00;100236.19;4303892;33;34250;-75
2022/11/09 09:48:12;;;;;;;69.62;26.00;;;;;;;8.46;100.00;100234.50;4303819;33;34010;-75
2022/11/09 09:50:51;;;;;;;71.65;26.42;;;;;;;8.47;100.00;100229.94;4302676;33;34227;-83
2022/11/09 09:53:25;;;;;;;72.85;25.75;;;;;;;8.95;100.00;100230.03;4304924;33;34109;-75
2022/11/09 09:55:56;;;;;;;83.05;28.12;;;;;;;9.11;100.00;100230.47;4303395;33;34142;-76
2022/11/09 09:58:26;;;;;;;76.87;26.98;;;;;;;9.30;100.00;100220.44;4299440;33;33632;-71
2022/11/09 10:00:57;;;;;;;75.53;28.30;;;;;;;8.86;100.00;100220.56;4302767;33;33969;-76
2022/11/09 10:03:25;;;;;;;79.20;28.23;;;;;;;9.19;100.00;100214.72;4303517;33;34498;-75
2022/11/09 10:06:17;;;;;;;72.47;28.85;;;;;;;9.38;98.80;100212.81;4303173;33;34634;-72
2022/11/09 10:09:04;;;;;;;70.87;28.05;;;;;;;9.27;98.73;100213.59;4303206;33;33944;-84
2022/11/09 10:11:54;;;;;;;75.57;27.58;;;;;;;9.21;99.84;100206.41;4302839;33;34013;-69
2022/11/09 10:14:55;;;;;;;67.10;26.60;;;;;;;9.36;98.84;100204.09;4303171;33;33730;-75
2022/11/09 10:17:50;;;;;;;66.03;26.02;;;;;;;9.55;98.26;100209.47;4303477;33;34328;-76
2022/11/09 10:20:22;;;;;;;80.45;28.33;;;;;;;9.40;97.56;100193.66;4302869;33;33759;-82
2022/11/09 10:23:04;;;;;;;66.68;25.90;;;;;;;9.53;98.04;100201.56;4303504;33;33268;-72
2022/11/09 10:25:37;;;;;;;69.50;27.27;;;;;;;9.50;98.88;100202.03;4302066;33;33716;-73
2022/11/09 10:28:27;;;;;;;70.03;27.25;;;;;;;9.84;95.54;100208.59;4301932;33;34213;-71
2022/11/09 10:31:21;;;;;;;64.12;27.08;;;;;;;9.75;95.70;100207.28;4300453;33;34018;-70
2022/11/09 10:33:53;;;;;;;60.60;25.12;;;;;;;9.67;95.59;100204.09;4301956;33;33597;-71
2022/11/09 10:36:31;;;;;;;75.30;27.62;;;;;;;9.70;95.61;100203.59;4301962;33;33990;-78
2022/11/09 10:39:00;;;;;;;70.78;25.40;;;;;;;9.15;99.89;100196.47;4303156;33;35081;-74
2022/11/09 10:41:46;;;;;;;77.95;29.45;;;;;;;9.07;100.00;100203.03;4301833;33;34219;-75
2022/11/09 10:44:32;;;;;;;79.72;30.42;;;;;;;9.67;96.97;100193.25;4303514;33;33662;-78
2022/11/09 10:47:18;;;;;;;73.65;28.52;;;;;;;9.83;95.77;100192.59;4303392;33;34108;-74
2022/11/09 10:50:18;;;;;;;78.28;30.23;;;;;;;9.59;97.91;100178.12;4303089;33;35616;-83
2022/11/09 10:53:13;;;;;;;75.18;30.62;;;;;;;9.33;99.42;100182.91;4303215;33;33885;-83
2022/11/09 10:56:11;;;;;;;83.57;29.42;;;;;;;9.67;97.38;100179.69;4302872;33;33421;-71
2022/11/09 10:59:45;;;;;;;73.90;30.60;;;;;;;10.10;94.35;100182.13;4287653;33;33992;-75
2022/11/09 11:02:37;;;;;;;73.85;30.10;;;;;;;10.03;93.87;100179.50;4288912;33;34337;-84
2022/11/09 11:05:26;;;;;;;74.75;28.75;;;;;;;9.78;95.75;100174.31;4287578;33;34859;-72
2022/11/09 11:08:34;;;;;;;69.40;29.67;;;;;;;9.71;97.67;100173.56;4287945;33;33655;-73
2022/11/09 11:11:22;;;;;;;80.28;30.83;;;;;;;10.05;94.31;100173.88;4286149;33;33962;-75
2022/11/09 11:14:31;;;;;;;78.20;29.65;;;;;;;10.12;93.52;100169.16;4286423;33;35185;-71
2022/11/09 11:17:22;;;;;;;75.53;29.48;;;;;;;10.01;95.03;100168.09;4286763;33;33658;-71
2022/11/09 11:20:29;;;;;;;75.95;30.00;;;;;;;10.07;94.46;100171.75;4286590;33;34263;-71
2022/11/09 11:23:23;;;;;;;69.07;29.52;;;;;;;10.02;94.14;100163.47;4287618;33;34011;-70
2022/11/09 11:26:27;;;;;;;74.60;29.33;;;;;;;10.29;92.62;100163.88;4290609;33;174842;-72
2022/11/09 11:29:27;;;;;;;71.18;28.90;;;;;;;9.88;94.34;100171.03;4300920;33;33998;-69
2022/11/09 11:32:14;;;;;;;71.43;29.27;;;;;;;10.00;95.15;100171.03;4301853;33;34034;-78
2022/11/09 11:35:02;;;;;;;76.62;30.05;;;;;;;10.02;96.01;100163.47;4301814;33;34303;-73
2022/11/09 11:38:17;;;;;;;68.68;29.02;;;;;;;9.99;95.70;100161.25;4301072;33;33988;-72
2022/11/09 11:41:41;;;;;;;70.10;29.02;;;;;;;9.97;94.94;100166.91;4300797;33;33788;-71
2022/11/09 11:44:29;;;;;;;64.70;29.25;;;;;;;9.94;96.28;100166.56;4302793;33;33234;-72
2022/11/09 11:47:34;;;;;;;74.12;31.50;;;;;;;10.11;94.74;100166.66;4299195;33;34816;-75
2022/11/09 11:50:37;;;;;;;69.03;30.95;;;;;;;10.14;94.29;100164.31;4301706;33;34238;-73
2022/11/09 11:54:04;;;;;;;71.90;31.65;;;;;;;10.32;93.97;100162.56;4286864;33;32379;-73
2022/11/09 11:57:18;;;;;;;74.57;30.27;;;;;;;10.61;90.45;100160.78;4289816;33;33267;-74
2022/11/09 12:00:12;;;;;;;72.28;29.70;;;;;;;10.17;94.00;100157.59;4287094;33;34816;-70
2022/11/09 12:03:05;;;;;;;66.97;28.77;;;;;;;10.19;93.68;100152.75;4287091;33;34038;-74
2022/11/09 12:06:03;;;;;;;75.62;30.80;;;;;;;10.53;92.00;100156.53;4287108;33;34926;-72
2022/11/09 12:09:04;;;;;;;81.25;30.70;;;;;;;10.15;93.48;100149.72;4288153;33;33683;-70
2022/11/09 12:12:15;;;;;;;93.32;32.45;;;;;;;10.43;92.01;100154.44;4291058;33;34825;-72
2022/11/09 12:15:01;;;;;;;86.63;32.97;;;;;;;10.24;93.69;100152.91;4301373;33;34987;-73
2022/11/09 12:18:29;;;;;;;81.57;31.12;;;;;;;9.83;96.17;100143.81;4301000;33;33367;-72
2022/11/09 12:21:25;;;;;;;82.30;33.42;;;;;;;10.36;93.81;100150.19;4300680;33;32939;-70
2022/11/09 12:24:29;;;;;;;81.78;31.77;;;;;;;9.88;97.12;100143.09;4299809;33;34100;-75
2022/11/09 12:27:36;;;;;;;81.68;31.52;;;;;;;9.95;96.99;100150.03;4301080;33;35171;-77
2022/11/09 12:30:25;;;;;;;78.68;30.52;;;;;;;9.97;95.46;100145.22;4300518;33;33822;-75
2022/11/09 12:33:20;;;;;;;77.95;30.50;;;;;;;9.84;95.95;100145.44;4300748;33;33542;-75
2022/11/09 12:36:18;;;;;;;78.00;29.85;;;;;;;9.91;95.29;100134.50;4300669;33;34085;-74
2022/11/09 12:39:12;;;;;;;73.22;30.98;;;;;;;10.30;93.31;100141.09;4301413;33;33794;-78
2022/11/09 12:42:03;;;;;;;81.75;30.25;;;;;;;10.03;95.66;100138.84;4301119;33;34018;-78
2022/11/09 12:45:21;;;;;;;70.72;30.73;;;;;;;10.07;95.43;100142.75;4301172;33;34398;-72
2022/11/09 12:48:14;;;;;;;72.97;30.12;;;;;;;10.12;94.84;100142.03;4302132;33;33905;-80
2022/11/09 12:51:02;;;;;;;78.50;32.42;;;;;;;9.70;99.38;100139.44;4302059;33;35229;-71
2022/11/09 12:53:48;;;;;;;81.90;33.72;;;;;;;10.10;95.79;100137.91;4300567;33;34062;-78
2022/11/09 12:56:35;;;;;;;69.87;31.23;;;;;;;10.30;92.64;100143.00;4303506;33;33559;-78
2022/11/09 12:59:27;;;;;;;77.10;30.77;;;;;;;10.22;93.26;100144.16;4301998;33;34783;-78
2022/11/09 13:02:26;;;;;;;68.10;29.25;;;;;;;10.11;94.55;100142.25;4304038;33;34115;-78
2022/11/09 13:05:36;;;;;;;70.87;29.48;;;;;;;10.25;93.17;100135.53;4302552;33;34160;-73
2022/11/09 13:08:30;;;;;;;70.78;30.77;;;;;;;10.83;89.29;100134.63;4302409;33;34348;-72
2022/11/09 13:11:25;;;;;;;71.85;30.75;;;;;;;10.61;90.26;100125.50;4302606;33;33453;-77
2022/11/09 13:14:22;;;;;;;71.50;29.77;;;;;;;10.20;93.52;100127.31;4304006;33;34685;-73
2022/11/09 13:17:23;;;;;;;73.97;31.08;;;;;;;9.98;95.93;100129.78;4303157;33;33718;-74
2022/11/09 13:20:33;;;;;;;77.00;30.12;;;;;;;9.79;97.26;100116.34;4303973;33;33558;-74
2022/11/09 13:23:40;;;;;;;78.78;29.42;;;;;;;9.77;96.84;100118.47;4303880;33;33829;-71
2022/11/09 13:26:46;;;;;;;69.55;30.15;;;;;;;9.97;94.92;100126.22;4302975;33;33693;-71
2022/11/09 13:29:40;;;;;;;78.12;31.73;;;;;;;9.97;96.29;100120.00;4301755;33;34217;-71
2022/11/09 13:32:28;;;;;;;75.28;29.98;;;;;;;10.45;92.55;100121.63;4303904;33;34216;-71
2022/11/09 13:35:39;;;;;;;71.97;28.85;;;;;;;9.83;95.44;100117.53;4297301;33;34210;-72
2022/11/09 13:38:29;;;;;;;80.80;29.95;;;;;;;9.99;96.39;100118.69;4300549;33;33757;-72
2022/11/09 13:41:30;;;;;;;86.35;34.22;;;;;;;9.66;98.48;100113.84;4303641;33;33805;-73
2022/11/09 13:44:22;;;;;;;71.07;30.83;;;;;;;9.68;98.53;100113.62;4303205;33;33697;-71
2022/11/09 13:47:21;;;;;;;80.65;32.15;;;;;;;10.18;94.78;100110.44;4303897;33;33666;-72
2022/11/09 13:50:16;;;;;;;80.22;32.75;;;;;;;9.99;95.72;100121.41;4301195;33;34210;-72
2022/11/09 13:53:02;;;;;;;82.53;32.03;;;;;;;10.14;95.10;100120.12;4292441;33;34503;-75
2022/11/09 13:55:48;;;;;;;74.55;32.00;;;;;;;10.66;91.41;100120.16;4303255;33;34407;-74
2022/11/09 13:58:36;;;;;;;70.50;33.30;;;;;;;10.65;90.56;100121.25;4302740;33;33612;-71
2022/11/09 14:01:47;;;;;;;72.70;31.20;;;;;;;10.54;91.27;100112.06;4292714;33;33645;-77
2022/11/09 14:04:38;;;;;;;77.78;31.92;;;;;;;10.13;93.84;100113.88;4281373;33;33431;-71
2022/11/09 14:07:29;;;;;;;74.35;32.30;;;;;;;10.41;92.74;100112.31;4302251;33;33446;-70
2022/11/09 14:10:49;;;;;;;62.22;29.98;;;;;;;10.44;91.56;100117.28;4301910;33;34916;-71
2022/11/09 14:13:48;;;;;;;69.45;30.17;;;;;;;10.60;90.72;100121.13;4303367;33;34074;-71
2022/11/09 14:16:50;;;;;;;77.22;32.63;;;;;;;10.30;92.05;100116.69;4302276;33;33866;-70
2022/11/09 14:19:57;;;;;;;78.00;29.77;;;;;;;10.66;90.55;100114.75;4301926;33;33147;-71
2022/11/09 14:22:43;;;;;;;78.62;32.53;;;;;;;10.58;90.91;100104.25;4303565;33;34132;-76
2022/11/09 14:25:31;;;;;;;76.20;30.83;;;;;;;10.26;93.97;100110.09;4303391;33;34828;-70
2022/11/09 14:28:25;;;;;;;67.57;30.85;;;;;;;10.11;93.88;100112.44;4301993;33;33499;-71
2022/11/09 14:31:40;;;;;;;71.18;29.70;;;;;;;10.14;93.51;100114.69;4302377;33;33482;-71
2022/11/09 14:34:30;;;;;;;71.45;30.02;;;;;;;10.36;92.09;100112.22;4301472;33;33363;-73
2022/11/09 14:37:16;;;;;;;81.37;32.53;;;;;;;9.96;94.98;100113.75;4298343;33;33604;-71
2022/11/09 14:40:02;;;;;;;76.68;32.88;;;;;;;10.23;93.74;100105.94;4301639;33;33790;-69
2022/11/09 14:42:52;;;;;;;71.68;31.33;;;;;;;10.57;91.70;100113.47;4303497;33;34517;-75
2022/11/09 14:45:47;;;;;;;72.62;31.33;;;;;;;10.39;92.44;100117.19;4300441;33;34970;-69
2022/11/09 14:48:35;;;;;;;79.60;31.62;;;;;;;10.21;92.94;100118.91;4291707;33;34515;-70
2022/11/09 14:51:27;;;;;;;70.28;30.80;;;;;;;10.43;91.68;100113.75;4301706;33;33967;-71
2022/11/09 14:54:15;;;;;;;76.20;33.00;;;;;;;10.67;89.93;100119.13;4301909;33;34406;-71
2022/11/09 14:57:01;;;;;;;73.87;31.25;;;;;;;10.71;89.33;100120.25;4301242;33;33807;-72
2022/11/09 14:59:47;;;;;;;73.53;32.35;;;;;;;10.62;90.02;100119.81;4302838;33;35183;-73
2022/11/09 15:02:36;;;;;;;73.90;32.53;;;;;;;10.87;87.66;100110.56;4291765;33;33550;-72
2022/11/09 15:05:31;;;;;;;78.00;34.45;;;;;;;10.34;91.64;100115.16;4301774;33;33484;-70
2022/11/09 15:08:19;;;;;;;82.73;34.57;;;;;;;10.54;91.19;100117.50;4303124;33;33766;-73
2022/11/09 15:11:06;;;;;;;85.97;35.05;;;;;;;10.66;90.12;100121.00;4301154;33;34282;-74
2022/11/09 15:13:53;;;;;;;96.45;37.78;;;;;;;10.49;90.39;100117.38;4295564;33;34876;-70
2022/11/09 15:16:39;;;;;;;78.72;31.85;;;;;;;10.58;89.92;100117.81;4276547;33;33261;-70
2022/11/09 15:19:37;;;;;;;73.12;33.88;;;;;;;10.65;89.97;100119.34;4287711;33;33983;-72
2022/11/09 15:22:55;;;;;;;85.55;36.38;;;;;;;10.51;91.16;100122.56;4289441;33;34016;-72
2022/11/09 15:25:41;;;;;;;80.65;34.25;;;;;;;10.27;93.07;100117.97;4288398;33;33837;-72
2022/11/09 15:28:27;;;;;;;86.32;34.88;;;;;;;10.44;91.16;100112.66;4288378;33;33592;-72
2022/11/09 15:31:15;;;;;;;80.78;33.08;;;;;;;10.32;92.38;100113.75;4289713;33;33950;-71
2022/11/09 15:34:01;;;;;;;85.53;33.25;;;;;;;10.49;91.44;100113.84;4302913;33;34221;-73
2022/11/09 15:36:53;;;;;;;83.85;34.47;;;;;;;10.16;93.97;100112.56;4302344;33;34774;-71
2022/11/09 15:39:38;;;;;;;77.30;32.65;;;;;;;10.02;95.08;100120.09;4303776;33;33644;-71
2022/11/09 15:42:25;;;;;;;79.87;32.75;;;;;;;10.19;93.42;100114.78;4303801;33;34085;-71
2022/11/09 15:45:13;;;;;;;87.50;34.38;;;;;;;10.01;95.17;100118.47;4302272;33;34120;-73
2022/11/09 15:48:00;;;;;;;88.65;33.78;;;;;;;10.36;92.02;100113.03;4302530;33;34796;-77
2022/11/09 15:50:46;;;;;;;83.95;32.95;;;;;;;10.80;89.33;100116.13;4303823;33;33404;-72
2022/11/09 15:53:32;;;;;;;81.18;31.52;;;;;;;10.50;91.33;100118.22;4303615;33;34872;-73
2022/11/09 15:56:22;;;;;;;77.40;32.80;;;;;;;10.59;89.70;100114.87;4302582;33;35077;-72
2022/11/09 15:59:26;;;;;;;87.80;34.53;;;;;;;10.28;92.65;100126.94;4302468;33;34635;-72
2022/11/09 16:02:13;;;;;;;78.68;33.65;;;;;;;10.29;92.48;100122.34;4302446;33;34766;-70
2022/11/09 16:04:58;;;;;;;87.82;34.33;;;;;;;10.83;89.31;100125.69;4302327;33;33867;-71
2022/11/09 16:07:49;;;;;;;85.40;34.10;;;;;;;10.21;93.08;100118.91;4302840;33;34507;-73
2022/11/09 16:10:37;;;;;;;89.18;36.15;;;;;;;10.69;89.90;100122.44;4303071;33;34646;-74
2022/11/09 16:13:23;;;;;;;87.40;35.55;;;;;;;10.79;88.58;100128.03;4302065;33;34549;-72
2022/11/09 16:16:11;;;;;;;83.72;33.50;;;;;;;10.11;93.26;100131.41;4303187;33;33790;-71
2022/11/09 16:18:57;;;;;;;86.25;34.83;;;;;;;10.06;94.14;100122.13;4297303;33;35138;-71
2022/11/09 16:21:43;;;;;;;81.47;33.75;;;;;;;10.36;91.93;100126.59;4299955;33;34054;-77
2022/11/09 16:24:29;;;;;;;92.05;35.53;;;;;;;10.25;93.00;100128.22;4299074;33;33379;-70
2022/11/09 16:27:14;;;;;;;90.15;34.28;;;;;;;10.79;89.48;100121.78;4296633;33;34072;-72
2022/11/09 16:30:21;;;;;;;82.57;34.50;;;;;;;10.69;89.55;100130.56;4302469;33;35045;-75
2022/11/09 16:33:08;;;;;;;82.05;35.85;;;;;;;10.16;93.17;100118.00;4302903;33;34178;-71
2022/11/09 16:35:55;;;;;;;88.53;33.95;;;;;;;10.33;92.33;100129.81;4303405;33;34349;-72
2022/11/09 16:38:43;;;;;;;92.65;34.50;;;;;;;10.45;91.87;100127.91;4289289;33;33991;-71
2022/11/09 16:41:29;;;;;;;96.65;36.67;;;;;;;10.25;93.72;100136.38;4288452;33;34373;-76